createdAt,value
2018-03-02T21:45:35.333Z,0.30
2018-03-02T21:48:01.872Z,0.30
2018-03-02T21:50:29.350Z,0.20
2018-03-02T21:52:56.568Z,0.20
2018-03-02T21:55:23.047Z,0.30
2018-03-02T21:57:49.512Z,0.30
2018-03-02T22:00:16.012Z,0.30
2018-03-02T22:02:42.482Z,0.30
2018-03-02T22:05:08.989Z,0.30
2018-03-02T22:07:35.462Z,0.30
2018-03-02T22:10:01.937Z,0.30
2018-03-02T22:12:28.510Z,0.30
2018-03-02T22:14:54.979Z,0.30
2018-03-02T22:17:21.380Z,0.20
2018-03-02T22:19:47.990Z,0.30
2018-03-02T22:22:14.455Z,0.30
2018-03-02T22:24:40.905Z,0.30
2018-03-02T22:27:07.446Z,0.20
2018-03-02T22:29:34.589Z,0.20
2018-03-02T22:32:01.976Z,0.20
2018-03-02T22:34:28.483Z,0.20
2018-03-02T22:36:54.940Z,0.20
2018-03-02T22:39:21.417Z,0.00
2018-03-02T22:41:47.909Z,0.00
2018-03-02T22:44:14.458Z,0.10
2018-03-02T22:46:40.907Z,0.20
2018-03-02T22:49:07.369Z,0.30
2018-03-02T22:51:33.793Z,0.40
2018-03-02T22:54:00.251Z,0.40
2018-03-02T22:56:26.690Z,0.40
2018-03-02T22:58:53.564Z,0.50
2018-03-02T23:01:20.691Z,0.50
2018-03-02T23:03:47.162Z,0.50
2018-03-02T23:06:14.339Z,0.30
2018-03-02T23:08:40.740Z,0.30
2018-03-02T23:11:07.232Z,0.30
2018-03-02T23:13:33.595Z,0.30
2018-03-02T23:16:00.037Z,0.40
2018-03-02T23:18:26.470Z,0.30
2018-03-02T23:20:52.958Z,0.30
2018-03-02T23:23:19.357Z,0.30
2018-03-02T23:25:45.742Z,0.30
2018-03-02T23:28:12.186Z,0.40
2018-03-02T23:30:39.337Z,0.50
2018-03-02T23:33:06.502Z,0.50
2018-03-02T23:35:32.920Z,0.50
2018-03-02T23:37:59.353Z,0.50
2018-03-02T23:40:26.508Z,0.60
2018-03-02T23:42:52.971Z,0.60
2018-03-02T23:45:19.402Z,0.60
2018-03-02T23:47:45.787Z,0.70
2018-03-02T23:50:12.937Z,0.70
2018-03-02T23:52:39.341Z,0.70
2018-03-02T23:55:05.785Z,0.60
2018-03-02T23:57:32.176Z,0.70
2018-03-02T23:59:58.561Z,0.60
